createdAt,value
2022-09-21T00:03:56.386Z,10.15
2022-09-21T00:09:04.011Z,10.04
2022-09-21T00:14:11.714Z,10.44
2022-09-21T00:19:20.243Z,10.41
2022-09-21T00:24:25.141Z,10.35
2022-09-21T00:29:30.158Z,10.43
2022-09-21T00:34:37.694Z,10.55
2022-09-21T00:39:43.857Z,10.59
2022-09-21T00:44:48.846Z,10.23
2022-09-21T00:49:58.820Z,10.40
2022-09-21T00:55:12.703Z,10.54
2022-09-21T01:00:17.880Z,10.40
2022-09-21T01:05:26.465Z,10.36
2022-09-21T01:10:35.384Z,10.39
2022-09-21T01:15:48.719Z,10.35
2022-09-21T01:21:18.944Z,10.37
2022-09-21T01:26:32.016Z,10.31
2022-09-21T01:31:44.975Z,10.03
2022-09-21T01:36:51.979Z,10.24
2022-09-21T01:41:59.200Z,10.38
2022-09-21T01:47:10.215Z,10.14
2022-09-21T01:52:20.208Z,10.06
2022-09-21T01:57:37.451Z,10.08
2022-09-21T02:02:51.550Z,9.89
2022-09-21T02:07:57.792Z,9.85
2022-09-21T02:13:07.441Z,9.73
2022-09-21T02:18:24.479Z,9.69
2022-09-21T02:23:35.845Z,9.77
2022-09-21T02:28:47.380Z,9.59
2022-09-21T02:34:02.173Z,9.47
2022-09-21T02:39:13.004Z,9.59
2022-09-21T02:44:23.977Z,9.62
2022-09-21T02:49:37.611Z,9.75
2022-09-21T02:54:47.066Z,9.72
2022-09-21T02:59:52.354Z,9.78
2022-09-21T03:04:59.815Z,9.73
2022-09-21T03:10:05.099Z,9.74
2022-09-21T03:15:12.493Z,9.74
2022-09-21T03:20:20.928Z,9.69
2022-09-21T03:25:26.270Z,9.74
2022-09-21T03:30:32.412Z,10.01
2022-09-21T03:35:42.325Z,10.00
2022-09-21T03:40:49.121Z,9.81
2022-09-21T03:45:54.025Z,9.90
2022-09-21T03:51:02.064Z,9.79
2022-09-21T03:56:07.453Z,9.86
2022-09-21T04:01:12.431Z,9.69
2022-09-21T04:06:20.286Z,9.81
2022-09-21T04:11:25.574Z,9.75
2022-09-21T04:16:30.739Z,9.72
2022-09-21T04:21:38.455Z,9.86
2022-09-21T04:26:43.813Z,9.88
2022-09-21T04:31:50.831Z,9.80
2022-09-21T04:36:58.801Z,9.82
2022-09-21T04:42:03.713Z,9.77
2022-09-21T04:47:09.784Z,9.84
2022-09-21T04:52:19.242Z,9.71
2022-09-21T04:57:26.720Z,9.78
2022-09-21T05:02:31.617Z,9.59
2022-09-21T05:07:39.243Z,9.56
2022-09-21T05:12:44.732Z,9.53
2022-09-21T05:17:53.662Z,9.62
2022-09-21T05:23:05.015Z,9.77
2022-09-21T05:28:13.119Z,9.82
2022-09-21T05:33:25.421Z,9.71
2022-09-21T05:38:43.095Z,9.63
2022-09-21T05:43:50.332Z,9.80
2022-09-21T05:49:03.070Z,9.69
2022-09-21T05:54:17.180Z,9.66
2022-09-21T05:59:45.748Z,9.62
2022-09-21T06:04:52.059Z,9.76
2022-09-21T06:10:00.809Z,9.90
2022-09-21T06:15:06.379Z,10.06
2022-09-21T06:20:12.697Z,9.95
2022-09-21T06:25:20.476Z,10.38
2022-09-21T06:30:25.822Z,10.22
2022-09-21T06:35:34.129Z,10.47
2022-09-21T06:40:41.613Z,10.66
2022-09-21T06:45:47.079Z,10.78
2022-09-21T06:51:00.273Z,10.74
2022-09-21T06:56:11.077Z,10.68
2022-09-21T07:01:19.743Z,11.24
2022-09-21T07:06:37.281Z,10.89
2022-09-21T07:11:45.196Z,10.88
2022-09-21T07:16:50.628Z,10.77
2022-09-21T07:21:57.767Z,11.06
2022-09-21T07:27:10.998Z,11.04
2022-09-21T07:32:16.768Z,11.39
2022-09-21T07:37:23.969Z,11.86
2022-09-21T07:42:38.781Z,11.87
2022-09-21T07:47:58.259Z,12.28
2022-09-21T07:53:26.848Z,11.86
2022-09-21T08:04:24.275Z,11.33
2022-09-21T08:09:34.928Z,11.38
2022-09-21T08:14:44.588Z,12.53
2022-09-21T08:19:51.424Z,13.93
2022-09-21T08:24:57.237Z,14.57
2022-09-21T08:30:07.563Z,15.40
2022-09-21T08:35:13.062Z,15.03
2022-09-21T08:40:18.774Z,15.37
2022-09-21T08:45:34.106Z,18.06
2022-09-21T08:51:03.662Z,16.33
2022-09-21T08:56:53.737Z,14.12
2022-09-21T09:02:33.812Z,14.61
2022-09-21T09:08:12.287Z,18.02
2022-09-21T09:13:50.282Z,16.40
2022-09-21T09:19:03.634Z,14.89
2022-09-21T09:24:14.757Z,16.77
2022-09-21T09:29:27.927Z,19.09
2022-09-21T09:34:48.974Z,16.68
2022-09-21T09:40:08.983Z,15.40
2022-09-21T09:45:38.395Z,16.47
2022-09-21T09:51:03.284Z,15.65
2022-09-21T10:02:16.860Z,15.62
2022-09-21T10:07:41.188Z,15.15
2022-09-21T10:12:49.905Z,15.52
2022-09-21T10:18:06.250Z,16.51
2022-09-21T10:23:16.445Z,16.69
2022-09-21T10:28:26.718Z,18.42
2022-09-21T10:33:32.612Z,16.44
2022-09-21T10:38:38.116Z,16.14
2022-09-21T10:43:48.203Z,16.51
2022-09-21T10:48:55.798Z,16.18
2022-09-21T10:54:24.413Z,16.00
2022-09-21T10:59:39.414Z,15.55
2022-09-21T11:04:52.416Z,15.13
2022-09-21T11:10:07.711Z,15.52
2022-09-21T11:15:29.034Z,16.07
2022-09-21T11:20:44.377Z,18.09
2022-09-21T11:25:56.192Z,15.62
2022-09-21T11:31:24.133Z,15.56
2022-09-21T11:36:41.388Z,15.96
2022-09-21T11:42:01.888Z,16.95
2022-09-21T11:47:20.259Z,16.31
2022-09-21T11:52:39.259Z,16.63
2022-09-21T11:57:55.063Z,16.30
2022-09-21T12:03:36.877Z,16.85
2022-09-21T12:09:23.983Z,16.55
2022-09-21T12:20:57.990Z,16.64
2022-09-21T12:26:21.254Z,17.03
2022-09-21T12:31:38.065Z,17.33
2022-09-21T12:37:02.272Z,16.72
2022-09-21T12:42:28.425Z,17.10
2022-09-21T12:47:47.491Z,16.53
2022-09-21T12:52:58.917Z,16.67
2022-09-21T12:58:15.480Z,16.32
2022-09-21T13:03:28.817Z,16.03
2022-09-21T13:08:41.221Z,16.40
2022-09-21T13:13:53.066Z,15.65
2022-09-21T13:19:00.701Z,15.95
2022-09-21T13:24:35.847Z,16.31
2022-09-21T13:29:43.386Z,16.19
2022-09-21T13:34:52.145Z,15.85
2022-09-21T13:40:42.940Z,16.64
2022-09-21T13:46:00.521Z,16.68
2022-09-21T13:51:14.699Z,16.66
2022-09-21T13:56:22.931Z,16.08
2022-09-21T14:01:52.753Z,16.01
2022-09-21T14:07:00.657Z,15.98
2022-09-21T14:12:09.800Z,15.55
2022-09-21T14:17:40.101Z,14.92
2022-09-21T14:22:49.250Z,14.62
2022-09-21T14:27:54.949Z,14.81
2022-09-21T14:33:15.552Z,15.27
2022-09-21T14:38:24.972Z,15.70
2022-09-21T14:43:34.001Z,15.66
2022-09-21T14:48:53.046Z,15.58
2022-09-21T14:54:26.503Z,15.56
2022-09-21T14:59:48.191Z,14.75
2022-09-21T15:05:17.600Z,14.85
2022-09-21T15:10:41.102Z,14.95
2022-09-21T15:16:00.217Z,15.20
2022-09-21T15:21:08.505Z,15.20
2022-09-21T15:26:21.462Z,14.53
2022-09-21T15:31:27.010Z,14.53
2022-09-21T15:36:38.739Z,14.47
2022-09-21T15:41:50.566Z,15.03
2022-09-21T15:47:01.134Z,15.08
2022-09-21T15:52:19.425Z,15.39
2022-09-21T15:57:37.381Z,15.34
2022-09-21T16:02:44.590Z,15.27
2022-09-21T16:07:52.329Z,15.34
2022-09-21T16:13:26.990Z,15.22
2022-09-21T16:18:35.943Z,14.98
2022-09-21T16:23:45.323Z,14.77
2022-09-21T16:28:58.536Z,14.53
2022-09-21T16:34:22.647Z,14.71
2022-09-21T16:39:30.465Z,14.66
2022-09-21T16:44:41.114Z,14.19
2022-09-21T16:49:46.810Z,14.15
2022-09-21T16:54:54.949Z,14.03
2022-09-21T17:00:01.542Z,13.70
2022-09-21T17:05:11.145Z,13.72
2022-09-21T17:10:19.827Z,13.75
2022-09-21T17:15:25.663Z,13.41
2022-09-21T17:20:35.978Z,13.35
2022-09-21T17:25:45.014Z,13.18
2022-09-21T17:30:50.272Z,12.56
2022-09-21T17:35:56.723Z,12.62
2022-09-21T17:41:06.497Z,12.75
2022-09-21T17:46:21.777Z,12.50
2022-09-21T17:51:41.964Z,12.67
2022-09-21T17:56:57.260Z,12.54
2022-09-21T18:02:07.625Z,12.53
2022-09-21T18:07:16.096Z,12.00
2022-09-21T18:12:48.604Z,11.68
2022-09-21T18:18:06.002Z,11.58
2022-09-21T18:23:21.572Z,11.44
2022-09-21T18:28:44.157Z,11.31
2022-09-21T18:33:57.030Z,11.30
2022-09-21T18:39:25.372Z,11.25
2022-09-21T18:44:40.319Z,11.34
2022-09-21T18:50:00.384Z,11.15
2022-09-21T18:55:15.515Z,11.33
2022-09-21T19:00:30.010Z,11.47
2022-09-21T19:05:35.970Z,11.12
2022-09-21T19:10:47.553Z,10.91
2022-09-21T19:16:04.644Z,10.80
2022-09-21T19:21:22.046Z,10.63
2022-09-21T19:26:34.117Z,10.46
2022-09-21T19:31:41.975Z,10.47
2022-09-21T19:36:48.989Z,10.82
2022-09-21T19:42:05.256Z,10.68
2022-09-21T19:47:22.974Z,10.45
2022-09-21T19:52:33.035Z,10.27
2022-09-21T19:57:51.595Z,10.19
2022-09-21T20:03:09.182Z,10.08
2022-09-21T20:08:20.481Z,10.04
2022-09-21T20:13:36.142Z,10.24
2022-09-21T20:18:50.835Z,10.33
2022-09-21T20:24:02.172Z,10.20
2022-09-21T20:29:07.867Z,10.29
2022-09-21T20:34:15.660Z,10.65
2022-09-21T20:39:22.143Z,10.58
2022-09-21T20:44:27.067Z,10.46
2022-09-21T20:49:35.220Z,10.25
2022-09-21T20:54:40.110Z,10.22
2022-09-21T20:59:45.296Z,10.17
2022-09-21T21:04:52.804Z,10.16
2022-09-21T21:09:59.086Z,9.85
2022-09-21T21:15:04.030Z,9.77
2022-09-21T21:20:13.104Z,9.72
2022-09-21T21:25:18.518Z,9.77
2022-09-21T21:30:25.272Z,9.84
2022-09-21T21:35:33.042Z,9.71
2022-09-21T21:40:39.044Z,9.63
2022-09-21T21:45:44.061Z,9.39
2022-09-21T21:51:01.020Z,9.23
2022-09-21T21:56:08.305Z,9.42
2022-09-21T22:01:15.304Z,9.56
2022-09-21T22:06:23.746Z,9.54
2022-09-21T22:11:31.191Z,9.50
2022-09-21T22:16:38.002Z,9.29
2022-09-21T22:21:53.220Z,9.50
2022-09-21T22:26:59.142Z,9.48
2022-09-21T22:32:04.792Z,9.54
2022-09-21T22:37:12.294Z,9.51
2022-09-21T22:42:17.345Z,9.54
2022-09-21T22:47:22.254Z,9.50
2022-09-21T22:52:30.042Z,9.49
2022-09-21T22:57:35.104Z,9.50
2022-09-21T23:02:40.067Z,9.59
2022-09-21T23:07:47.544Z,9.56
2022-09-21T23:12:53.628Z,9.69
2022-09-21T23:17:58.589Z,9.66
2022-09-21T23:23:06.721Z,9.72
2022-09-21T23:28:11.655Z,10.10
2022-09-21T23:33:17.376Z,9.63
2022-09-21T23:38:24.944Z,9.56
2022-09-21T23:43:29.966Z,9.59
2022-09-21T23:48:35.316Z,9.94
2022-09-21T23:53:43.193Z,10.12
2022-09-21T23:58:49.495Z,10.04
